Terminal Aerodrome Forecast
Issued by NWS Melbourne, FL

Home | Current Version | Previous Version | Text Only | Print | Product List | Glossary On
Versions: 1 2 3 4 5 6 7 8 9 10 11 12 13 14 15 16 17 18 19 20 21 22 23 24 25 26 27 28 29 30 31 32
532
FTUS42 KMLB 201333 AAA
TAFVRB
TAF AMD
KVRB 201333Z 2014/2112 26016G26KT P6SM SCT025 SCT040
      TEMPO 2014/2015 BKN025
     FM201700 28022G28KT P6SM SCT035 SCT200
     FM210000 29011KT P6SM SKC
     FM210600 30008KT P6SM SKC=

USA.gov is the U.S. government's official web portal to all federal, state and local government web resources and services.